Time;durP1;ratioP1;P1;durP2;ratioP2;P2;SDS_P1;SDS_P2;PMS_P1;PMS_P2;Temp;Humidity;BMP_temperature;BMP_pressure;BME280_temperature;BME280_humidity;BME280_pressure;Samples;Min_cycle;Max_cycle;Signal;HPM_P1;HPM_P2
2021/12/12 00:02:06;;;;;;;110.05;55.17;;;;;;;-2.22;74.46;101024.97;2116006;82;29337;-62
2021/12/12 00:05:08;;;;;;;106.27;54.03;;;;;;;-2.27;74.62;101020.52;2124280;83;27787;-60
2021/12/12 00:08:10;;;;;;;104.53;56.05;;;;;;;-2.31;74.69;101010.41;2114533;83;28155;-59
2021/12/12 00:11:16;;;;;;;106.65;52.93;;;;;;;-2.34;74.78;101017.81;2117896;82;31115;-60
2021/12/12 00:14:25;;;;;;;115.42;53.60;;;;;;;-2.36;74.84;101011.66;2114483;82;30544;-60
2021/12/12 00:17:28;;;;;;;114.35;56.25;;;;;;;-2.39;74.85;101010.71;2116961;82;29334;-61
2021/12/12 00:20:31;;;;;;;107.85;54.98;;;;;;;-2.42;74.86;101014.18;2112315;82;27680;-59
2021/12/12 00:23:34;;;;;;;107.32;53.83;;;;;;;-2.46;74.88;101014.98;2124256;82;29530;-60
2021/12/12 00:26:36;;;;;;;107.90;52.83;;;;;;;-2.50;74.90;101015.81;2116443;82;31110;-59
2021/12/12 00:29:40;;;;;;;101.02;51.58;;;;;;;-2.54;74.88;101008.75;2117623;83;33235;-62
2021/12/12 00:32:42;;;;;;;105.07;51.55;;;;;;;-2.58;74.89;101009.55;2119901;83;29344;-62
2021/12/12 00:35:44;;;;;;;101.90;51.00;;;;;;;-2.64;74.85;101003.79;2118293;82;27712;-61
2021/12/12 00:38:51;;;;;;;112.55;51.95;;;;;;;-2.71;74.83;101001.50;2115685;83;29093;-60
2021/12/12 00:42:01;;;;;;;109.12;51.42;;;;;;;-2.78;74.85;100999.20;2125665;82;31508;-62
2021/12/12 00:45:10;;;;;;;102.62;51.30;;;;;;;-2.84;74.77;101010.02;2119267;82;32944;-60
2021/12/12 00:48:12;;;;;;;108.90;52.43;;;;;;;-2.93;74.79;101011.62;2074071;84;29326;-65
2021/12/12 00:51:18;;;;;;;113.83;56.60;;;;;;;-2.99;74.82;101017.19;2085150;84;28476;-59
2021/12/12 00:54:20;;;;;;;115.35;55.15;;;;;;;-3.06;74.95;101009.20;2123442;83;29680;-59
2021/12/12 00:57:23;;;;;;;109.20;53.50;;;;;;;-3.13;74.87;101017.83;2138109;83;32425;-62
2021/12/12 01:00:30;;;;;;;110.25;52.35;;;;;;;-3.18;74.86;101020.78;2114151;83;33950;-60
2021/12/12 01:03:40;;;;;;;101.92;51.45;;;;;;;-3.24;74.85;101024.62;2063484;86;30253;-60
2021/12/12 01:06:44;;;;;;;113.20;53.80;;;;;;;-3.29;74.95;101028.88;2117911;83;27698;-60
2021/12/12 01:09:52;;;;;;;107.58;53.35;;;;;;;-3.36;74.87;101031.38;2125190;83;28842;-61
2021/12/12 01:12:56;;;;;;;105.67;52.33;;;;;;;-3.42;74.93;101029.96;2063563;86;31023;-59
2021/12/12 01:16:11;;;;;;;121.00;56.40;;;;;;;-3.47;75.01;101023.73;2101238;84;32957;-60
2021/12/12 01:19:19;;;;;;;106.90;51.92;;;;;;;-3.52;75.12;101028.89;2063597;84;29547;-60
2021/12/12 01:22:33;;;;;;;137.30;56.90;;;;;;;-3.58;75.12;101028.76;2066454;85;28372;-60
2021/12/12 01:25:43;;;;;;;115.88;56.13;;;;;;;-3.62;75.12;101026.92;2070741;83;29694;-60
2021/12/12 01:28:49;;;;;;;121.70;56.25;;;;;;;-3.67;75.21;101028.14;2102855;84;31411;-60
2021/12/12 01:31:51;;;;;;;129.32;58.75;;;;;;;-3.70;75.33;101032.45;2118625;84;32997;-60
2021/12/12 01:34:56;;;;;;;148.50;64.37;;;;;;;-3.74;75.35;101032.81;2120675;84;30093;-59
2021/12/12 01:41:30;;;;;;;155.60;65.12;;;;;;;-3.73;75.59;101037.20;2120681;83;29897;-61
2021/12/12 01:44:52;;;;;;;133.40;56.73;;;;;;;-3.72;75.81;101041.56;2120999;83;31516;-61
2021/12/12 01:48:02;;;;;;;148.90;62.55;;;;;;;-3.65;76.22;101045.22;2120524;83;34179;-61
2021/12/12 01:51:08;;;;;;;133.75;57.35;;;;;;;-3.57;76.50;101044.94;2140205;83;29341;-61
2021/12/12 01:54:12;;;;;;;126.58;55.80;;;;;;;-3.48;76.67;101044.23;2143559;82;27686;-60
2021/12/12 01:57:22;;;;;;;125.93;56.83;;;;;;;-3.40;76.77;101037.42;2140744;83;28646;-63
2021/12/12 02:00:36;;;;;;;117.05;50.95;;;;;;;-3.34;76.88;101031.42;2102365;84;31033;-60
2021/12/12 02:03:43;;;;;;;114.90;52.67;;;;;;;-3.27;76.92;101034.59;2106036;84;33375;-61
2021/12/12 02:06:48;;;;;;;118.30;51.75;;;;;;;-3.21;76.91;101038.66;2106713;84;29358;-61
2021/12/12 02:09:50;;;;;;;106.72;52.75;;;;;;;-3.15;76.89;101026.53;2108983;83;28204;-62
2021/12/12 02:12:52;;;;;;;107.65;51.90;;;;;;;-3.09;76.90;101030.55;2106506;84;29353;-64
2021/12/12 02:15:58;;;;;;;126.78;52.30;;;;;;;-3.06;76.88;101023.61;2106334;84;31124;-61
2021/12/12 02:19:00;;;;;;;114.32;51.77;;;;;;;-3.02;76.85;101019.34;2108804;83;32951;-64
2021/12/12 02:22:23;;;;;;;120.55;54.55;;;;;;;-2.98;76.85;101014.61;2106515;84;29383;-63
2021/12/12 02:35:21;;;;;;;106.60;47.17;;;;;;;-2.99;76.64;101007.60;2106430;84;33474;-61
2021/12/12 02:38:31;;;;;;;104.63;45.70;;;;;;;-2.97;76.81;101016.79;2108025;83;29758;-61
2021/12/12 02:41:33;;;;;;;100.75;44.42;;;;;;;-2.99;76.76;101014.16;2106910;84;27682;-61
2021/12/12 02:44:39;;;;;;;94.28;43.40;;;;;;;-2.98;76.95;101015.02;2106542;84;28497;-60
2021/12/12 02:47:40;;;;;;;101.05;44.42;;;;;;;-2.96;77.03;101014.18;2106723;84;31013;-66
2021/12/12 02:50:47;;;;;;;97.78;44.10;;;;;;;-2.93;77.13;101022.10;2103509;84;34195;-66
2021/12/12 02:53:54;;;;;;;117.72;39.92;;;;;;;-2.88;77.18;101023.48;2103270;84;30563;-65
2021/12/12 02:56:56;;;;;;;127.72;41.00;;;;;;;-2.86;77.16;101033.58;2063719;86;28044;-61
2021/12/12 02:59:58;;;;;;;107.55;43.83;;;;;;;-2.83;77.22;101043.26;2102614;84;29047;-62
2021/12/12 03:03:00;;;;;;;102.00;40.00;;;;;;;-2.80;77.42;101054.67;2073047;85;31517;-60
2021/12/12 03:06:08;;;;;;;98.92;39.73;;;;;;;-2.76;77.42;101064.36;2120510;84;33767;-62
2021/12/12 03:09:21;;;;;;;92.75;40.70;;;;;;;-2.70;77.53;101062.69;2120590;84;30527;-62
2021/12/12 03:12:33;;;;;;;110.30;41.98;;;;;;;-2.67;77.49;101057.09;2119052;83;27771;-62
2021/12/12 03:15:40;;;;;;;103.83;46.37;;;;;;;-2.63;77.59;101061.95;2094931;83;29053;-61
2021/12/12 03:18:44;;;;;;;109.03;46.02;;;;;;;-2.55;77.68;101060.77;2120756;83;31023;-60
2021/12/12 03:21:47;;;;;;;113.72;46.80;;;;;;;-2.51;77.64;101071.33;2119492;83;32973;-63
2021/12/12 03:24:49;;;;;;;109.90;46.75;;;;;;;-2.47;77.60;101069.62;2092851;84;30301;-62
2021/12/12 03:27:52;;;;;;;97.95;42.98;;;;;;;-2.43;77.64;101078.45;2120587;84;27975;-63
2021/12/12 03:30:57;;;;;;;105.22;43.68;;;;;;;-2.41;77.59;101081.98;2120416;83;29645;-65
2021/12/12 03:34:00;;;;;;;104.97;45.33;;;;;;;-2.39;77.64;101082.45;2120757;83;31023;-66
2021/12/12 03:37:05;;;;;;;114.37;47.25;;;;;;;-2.36;77.72;101089.07;2119847;83;33001;-66
2021/12/12 03:40:10;;;;;;;;;;;;;;;-2.33;77.66;101091.75;2105243;83;31092;-66
2021/12/12 03:43:15;;;;;;;108.45;44.90;;;;;;;-2.28;77.81;101099.69;2101424;83;27703;-65
2021/12/12 03:46:17;;;;;;;105.22;45.08;;;;;;;-2.25;77.85;101097.53;2102463;84;29496;-66
2021/12/12 03:49:19;;;;;;;120.00;45.80;;;;;;;-2.21;77.88;101096.28;2103140;82;32478;-66
2021/12/12 03:52:23;;;;;;;97.82;42.58;;;;;;;-2.16;77.90;101101.63;2102090;84;34136;-66
2021/12/12 03:55:26;;;;;;;98.85;42.45;;;;;;;-2.14;77.79;101101.20;2102445;84;30071;-65
2021/12/12 03:58:28;;;;;;;104.27;44.03;;;;;;;;;;2111840;84;27769;-63
2021/12/12 04:01:35;;;;;;;113.00;43.42;;;;;;;-2.09;77.77;101108.72;2120667;83;29050;-64
2021/12/12 04:04:41;;;;;;;95.87;43.48;;;;;;;-2.07;77.72;101120.14;2120605;84;31908;-66
2021/12/12 04:07:44;;;;;;;93.65;41.37;;;;;;;-2.06;77.69;101122.31;2119133;84;33045;-65
2021/12/12 04:10:46;;;;;;;107.85;41.00;;;;;;;-2.03;77.73;101121.05;2120689;83;29387;-65
2021/12/12 04:13:52;;;;;;;97.33;42.13;;;;;;;-2.00;77.75;101121.11;2121000;83;27863;-66
2021/12/12 04:16:58;;;;;;;96.53;39.65;;;;;;;-1.98;77.75;101125.95;2120362;83;28673;-65
2021/12/12 04:20:08;;;;;;;104.45;40.45;;;;;;;-1.96;77.78;101132.13;2103169;84;31024;-65
2021/12/12 04:23:23;;;;;;;114.95;43.85;;;;;;;-1.94;77.72;101131.72;2100603;84;33994;-65
2021/12/12 04:26:32;;;;;;;92.20;41.13;;;;;;;-1.91;77.83;101134.81;2102493;84;29332;-65
2021/12/12 04:29:39;;;;;;;103.72;40.43;;;;;;;-1.88;77.82;101136.17;2102430;84;27619;-67
2021/12/12 04:32:43;;;;;;;111.90;41.68;;;;;;;-1.86;77.86;101137.95;2102630;84;29986;-67
2021/12/12 04:35:45;;;;;;;108.85;40.43;;;;;;;-1.85;77.88;101134.91;2102810;84;31873;-66
2021/12/12 04:38:47;;;;;;;104.72;40.45;;;;;;;-1.81;77.94;101145.89;2063870;86;33384;-66
2021/12/12 04:41:51;;;;;;;112.00;43.30;;;;;;;-1.82;77.88;101150.72;2107600;84;29772;-67
2021/12/12 04:45:24;;;;;;;109.22;40.65;;;;;;;-1.79;77.98;101151.19;2121152;83;27694;-65
2021/12/12 04:52:09;;;;;;;99.72;43.05;;;;;;;-1.80;77.92;101150.73;2118902;82;31415;-66
2021/12/12 04:55:31;;;;;;;114.90;43.00;;;;;;;-1.80;78.00;101154.23;2110219;83;32928;-64
2021/12/12 04:58:44;;;;;;;102.70;42.60;;;;;;;-1.79;77.83;101153.81;2102563;84;30541;-65
2021/12/12 05:02:05;;;;;;;103.00;41.15;;;;;;;-1.79;78.01;101148.12;2103833;83;28194;-66
2021/12/12 05:05:24;;;;;;;112.70;40.03;;;;;;;-1.79;77.95;101149.88;2118891;84;28868;-65
2021/12/12 05:08:53;;;;;;;105.05;41.90;;;;;;;-1.76;78.00;101156.05;2119879;84;31447;-66
2021/12/12 05:12:16;;;;;;;91.32;39.67;;;;;;;-1.76;78.00;101158.67;2121031;83;33510;-66
2021/12/12 05:15:32;;;;;;;86.25;38.63;;;;;;;-1.73;78.13;101155.20;2118830;84;29504;-65
2021/12/12 05:18:39;;;;;;;97.33;38.38;;;;;;;-1.72;77.97;101160.50;2119976;83;27715;-65
2021/12/12 05:21:46;;;;;;;91.12;40.88;;;;;;;-1.72;77.97;101159.59;2120939;83;29379;-66
2021/12/12 05:24:51;;;;;;;89.85;37.73;;;;;;;-1.72;77.98;101155.66;2118222;83;31954;-65
2021/12/12 05:27:55;;;;;;;89.30;39.42;;;;;;;-1.71;78.00;101159.64;2135383;83;33220;-67
2021/12/12 05:31:00;;;;;;;103.75;40.80;;;;;;;-1.68;77.98;101154.84;2121850;83;29788;-64
2021/12/12 05:34:03;;;;;;;93.17;39.33;;;;;;;-1.68;77.88;101154.84;2120661;83;28164;-65
2021/12/12 05:37:05;;;;;;;91.45;40.48;;;;;;;-1.69;77.82;101164.48;2110540;83;28647;-62
2021/12/12 05:40:11;;;;;;;108.05;39.92;;;;;;;-1.70;77.76;101173.64;2102615;84;31102;-64
2021/12/12 05:43:14;;;;;;;101.62;38.15;;;;;;;-1.70;77.78;101171.02;2102585;84;32975;-65
2021/12/12 05:46:19;;;;;;;92.55;38.10;;;;;;;-1.69;77.83;101181.98;2097556;83;30097;-63
2021/12/12 05:49:21;;;;;;;97.70;38.78;;;;;;;-1.70;77.75;101184.14;2103034;84;27623;-62
2021/12/12 05:52:22;;;;;;;99.22;41.20;;;;;;;;;;2102669;83;28677;-64
2021/12/12 05:55:27;;;;;;;94.85;40.67;;;;;;;;;;2102680;84;32096;-63
2021/12/12 05:58:30;;;;;;;98.05;40.28;;;;;;;-1.63;77.87;101190.38;2064026;86;32995;-64
2021/12/12 06:01:32;;;;;;;95.10;43.87;;;;;;;-1.61;77.85;101189.97;2103767;83;29450;-61
2021/12/12 06:04:35;;;;;;;96.90;39.70;;;;;;;-1.61;77.77;101185.62;2102754;84;27684;-64
2021/12/12 06:07:39;;;;;;;88.40;39.18;;;;;;;-1.62;77.53;101185.58;2102770;84;28645;-64
2021/12/12 06:10:44;;;;;;;121.45;41.63;;;;;;;-1.63;77.58;101186.43;2103059;84;31997;-61
2021/12/12 06:13:45;;;;;;;84.20;39.53;;;;;;;-1.66;77.51;101192.53;2102954;83;33777;-62
2021/12/12 06:16:47;;;;;;;106.15;42.67;;;;;;;-1.70;77.48;101190.71;2103011;84;30023;-65
2021/12/12 06:19:50;;;;;;;100.30;43.30;;;;;;;-1.73;77.39;101201.17;2063568;86;27742;-65
2021/12/12 06:22:54;;;;;;;90.95;39.75;;;;;;;-1.74;77.29;101207.31;2102675;84;29880;-63
2021/12/12 06:25:57;;;;;;;118.15;50.60;;;;;;;-1.81;77.20;101207.62;2064361;85;32252;-65
2021/12/12 06:28:58;;;;;;;107.55;43.60;;;;;;;-1.87;77.08;101220.22;2102396;84;33366;-65
2021/12/12 06:32:01;;;;;;;98.97;42.95;;;;;;;-1.88;77.38;101213.20;2102252;84;30549;-61
2021/12/12 06:35:06;;;;;;;92.10;39.85;;;;;;;-1.90;77.30;101213.60;2064182;85;27713;-64
2021/12/12 06:38:11;;;;;;;100.57;40.50;;;;;;;-1.93;77.09;101217.52;2102829;84;29479;-61
2021/12/12 06:41:12;;;;;;;105.80;42.75;;;;;;;-1.95;77.19;101217.02;2102574;84;31067;-60
2021/12/12 06:44:14;;;;;;;97.57;38.83;;;;;;;-2.03;76.86;101213.84;2102488;84;34143;-60
2021/12/12 06:47:18;;;;;;;82.12;38.70;;;;;;;-2.08;76.79;101223.83;2102312;84;29168;-61
2021/12/12 06:50:21;;;;;;;93.10;41.80;;;;;;;-2.14;76.81;101234.66;2103593;83;27675;-63
2021/12/12 06:53:26;;;;;;;94.50;42.30;;;;;;;-2.18;76.79;101245.09;2109753;84;28658;-60
2021/12/12 06:56:28;;;;;;;97.82;42.83;;;;;;;-2.21;76.84;101242.41;2112569;84;31062;-64
2021/12/12 06:59:33;;;;;;;98.45;44.83;;;;;;;-2.23;76.83;101244.11;2112370;83;33377;-62
2021/12/12 07:02:35;;;;;;;96.53;43.68;;;;;;;-2.26;76.86;101244.95;2111206;83;29377;-65
2021/12/12 07:05:36;;;;;;;104.90;44.53;;;;;;;-2.30;76.85;101252.30;2112561;84;27716;-62
2021/12/12 07:08:38;;;;;;;116.35;45.98;;;;;;;-2.35;76.64;101258.78;2112420;83;29131;-62
2021/12/12 07:11:41;;;;;;;108.22;47.62;;;;;;;-2.38;76.82;101257.81;2107855;83;32338;-61
2021/12/12 07:14:44;;;;;;;117.20;48.60;;;;;;;-2.38;76.92;101263.97;2088540;85;34159;-61
2021/12/12 07:17:46;;;;;;;109.57;46.95;;;;;;;-2.37;76.99;101259.59;2088526;84;30019;-61
2021/12/12 07:20:51;;;;;;;113.35;47.17;;;;;;;-2.36;76.92;101269.23;2088586;85;27663;-63
2021/12/12 07:23:54;;;;;;;;;;;;;;;-2.36;76.86;101266.20;2092407;84;28728;-63
2021/12/12 07:26:58;;;;;;;100.70;43.35;;;;;;;-2.39;76.46;101262.61;2088695;85;31848;-61
2021/12/12 07:30:01;;;;;;;96.20;40.88;;;;;;;-2.49;76.26;101268.13;2088714;85;34183;-61
2021/12/12 07:33:04;;;;;;;95.05;38.30;;;;;;;-2.57;76.12;101271.91;2088843;85;29687;-63
2021/12/12 07:36:11;;;;;;;95.53;40.48;;;;;;;-2.60;76.06;101268.78;2088612;85;27717;-64
2021/12/12 07:39:16;;;;;;;96.42;39.13;;;;;;;-2.64;76.19;101280.06;2093179;84;29485;-61
2021/12/12 07:42:18;;;;;;;100.07;43.95;;;;;;;-2.66;76.25;101289.66;2086976;84;31100;-63
2021/12/12 07:45:23;;;;;;;88.65;38.35;;;;;;;-2.68;76.21;101291.36;2088267;84;33343;-60
2021/12/12 07:48:24;;;;;;;;;;;;;;;-2.69;76.45;101292.22;2089531;85;29077;-62
2021/12/12 07:51:27;;;;;;;103.02;43.50;;;;;;;-2.65;76.45;101292.75;2088976;84;27693;-62
2021/12/12 07:54:29;;;;;;;108.35;45.75;;;;;;;-2.66;76.44;101292.70;2120384;83;29879;-62
2021/12/12 07:57:32;;;;;;;94.10;41.08;;;;;;;-2.61;76.41;101295.00;2120508;83;31570;-63
2021/12/12 08:00:35;;;;;;;107.05;44.25;;;;;;;-2.61;76.35;101297.17;2119744;84;33016;-62
2021/12/12 08:03:37;;;;;;;115.72;44.88;;;;;;;-2.56;76.43;101302.95;2120622;84;29516;-63
2021/12/12 08:06:41;;;;;;;114.75;48.40;;;;;;;-2.52;76.21;101305.66;2120607;84;27707;-64
2021/12/12 08:09:44;;;;;;;109.07;44.33;;;;;;;-2.51;76.20;101303.94;2119781;83;29067;-62
2021/12/12 08:12:45;;;;;;;95.32;40.50;;;;;;;-2.43;76.50;101304.97;2119904;83;31667;-61
2021/12/12 08:15:48;;;;;;;95.47;40.00;;;;;;;-2.36;76.40;101309.50;2120532;84;34103;-63
2021/12/12 08:18:51;;;;;;;92.50;38.28;;;;;;;-2.27;76.47;101311.83;2129334;83;30003;-65
2021/12/12 08:22:00;;;;;;;85.75;39.55;;;;;;;-2.18;76.48;101306.33;2138435;83;27594;-65
2021/12/12 08:25:06;;;;;;;94.13;41.83;;;;;;;-2.09;76.43;101310.88;2132557;83;28850;-61
2021/12/12 08:28:09;;;;;;;93.92;42.30;;;;;;;-2.02;76.22;101303.58;2136994;83;31181;-63
2021/12/12 08:31:12;;;;;;;101.02;45.88;;;;;;;-1.95;75.94;101302.36;2118100;82;33997;-65
2021/12/12 08:34:15;;;;;;;100.92;42.25;;;;;;;-1.90;76.10;101305.52;2102574;84;29335;-60
2021/12/12 08:37:17;;;;;;;100.60;42.13;;;;;;;-1.85;76.00;101316.13;2102605;84;27714;-62
2021/12/12 08:40:26;;;;;;;95.50;41.10;;;;;;;-1.78;76.07;101314.05;2103053;83;28679;-64
2021/12/12 08:43:29;;;;;;;102.27;44.67;;;;;;;-1.74;75.81;101311.07;2102720;84;31444;-64
2021/12/12 08:46:32;;;;;;;98.37;45.30;;;;;;;-1.66;75.84;101315.14;2102392;84;33388;-60
2021/12/12 08:49:38;;;;;;;92.22;41.23;;;;;;;-1.58;75.88;101310.88;2108370;83;29544;-63
2021/12/12 08:52:43;;;;;;;89.72;40.48;;;;;;;-1.49;75.82;101310.16;2120542;83;27723;-65
2021/12/12 08:55:49;;;;;;;86.72;39.63;;;;;;;-1.46;75.32;101320.72;2120799;84;29445;-65
2021/12/12 08:58:50;;;;;;;87.02;40.10;;;;;;;-1.40;75.54;101318.17;2103560;83;31073;-61
2021/12/12 09:01:57;;;;;;;93.62;46.25;;;;;;;-1.32;75.36;101313.07;2108027;83;34201;-66
2021/12/12 09:05:11;;;;;;;114.17;54.67;;;;;;;-1.23;75.27;101315.83;2138801;83;30525;-66
2021/12/12 09:08:18;;;;;;;130.65;59.90;;;;;;;-1.17;75.16;101318.56;2112875;83;27633;-63
2021/12/12 09:11:46;;;;;;;123.28;54.95;;;;;;;-1.09;75.33;101312.10;2062666;86;29923;-65
2021/12/12 09:14:59;;;;;;;125.75;57.75;;;;;;;-1.05;75.08;101316.52;2121314;83;32435;-63
2021/12/12 09:18:14;;;;;;;117.03;54.73;;;;;;;-1.00;74.81;101316.61;2060639;85;33143;-65
2021/12/12 09:21:33;;;;;;;117.40;56.65;;;;;;;-1.06;74.66;101310.80;2060835;86;29717;-65
2021/12/12 09:25:04;;;;;;;190.28;84.50;;;;;;;-0.99;74.84;101317.06;2119788;83;27712;-63
2021/12/12 09:28:40;;;;;;;329.45;142.65;;;;;;;-0.99;74.68;101314.44;2106481;82;29089;-65
2021/12/12 09:31:59;;;;;;;194.90;75.10;;;;;;;-0.92;74.76;101322.44;2103106;83;32016;-60
2021/12/12 09:35:15;;;;;;;205.60;80.77;;;;;;;-0.96;74.40;101319.72;2102462;84;34313;-61
2021/12/12 09:38:31;;;;;;;182.88;73.40;;;;;;;-1.00;74.27;101315.30;1957264;89;30475;-61
2021/12/12 09:41:58;;;;;;;177.93;70.30;;;;;;;-1.00;74.40;101307.41;1957019;89;27703;-65
2021/12/12 09:45:14;;;;;;;178.60;75.00;;;;;;;-1.02;74.37;101313.08;1976568;90;29165;-65
2021/12/12 09:52:03;;;;;;;182.32;72.42;;;;;;;-0.99;74.42;101305.23;1976620;90;32968;-64
2021/12/12 09:55:18;;;;;;;176.90;69.87;;;;;;;-0.92;74.46;101301.81;1951239;89;30515;-66
2021/12/12 09:58:31;;;;;;;321.18;131.00;;;;;;;-0.81;74.58;101292.75;1948548;91;27866;-65
2021/12/12 10:01:43;;;;;;;149.32;66.20;;;;;;;-0.79;74.21;101289.27;1948248;91;28672;-65
2021/12/12 10:05:09;;;;;;;253.20;108.45;;;;;;;-0.82;74.05;101280.45;1947315;91;31443;-64
2021/12/12 10:08:25;;;;;;;248.13;106.95;;;;;;;-0.80;74.10;101278.29;1948719;91;34303;-71
2021/12/12 10:11:50;;;;;;;122.98;56.58;;;;;;;-0.77;74.11;101270.44;1950116;91;29356;-69
2021/12/12 10:15:00;;;;;;;120.72;52.23;;;;;;;-0.69;74.14;101259.14;1991333;85;27645;-66
2021/12/12 10:18:21;;;;;;;115.85;52.90;;;;;;;-0.57;74.22;101263.65;2035267;86;29055;-58
2021/12/12 10:21:43;;;;;;;116.77;55.98;;;;;;;-0.50;74.06;101257.61;1977694;89;31603;-70
2021/12/12 10:25:05;;;;;;;116.70;54.67;;;;;;;-0.50;73.86;101252.34;1977914;90;34018;-68
2021/12/12 10:28:34;;;;;;;111.90;54.40;;;;;;;-0.55;73.72;101248.77;2006890;88;29396;-71
2021/12/12 10:31:52;;;;;;;181.22;82.82;;;;;;;-0.59;73.93;101248.30;2005689;87;27768;-69
2021/12/12 10:35:11;;;;;;;124.20;59.23;;;;;;;-0.60;73.98;101246.08;2006662;87;29174;-65
2021/12/12 10:38:21;;;;;;;98.15;46.63;;;;;;;-0.58;74.18;101244.80;1984335;88;32368;-65
2021/12/12 10:41:28;;;;;;;99.35;47.78;;;;;;;-0.50;74.36;101245.76;2002153;88;32985;-68
2021/12/12 10:44:38;;;;;;;84.10;42.33;;;;;;;-0.40;74.36;101237.08;2003351;88;30441;-70
2021/12/12 10:48:00;;;;;;;90.28;45.20;;;;;;;-0.29;74.44;101231.94;2006259;88;27817;-69
2021/12/12 10:51:10;;;;;;;88.67;43.87;;;;;;;-0.19;74.33;101230.28;2010924;87;28461;-72
2021/12/12 10:54:23;;;;;;;93.92;47.43;;;;;;;-0.05;74.36;101231.29;2024703;86;32342;-67
2021/12/12 10:57:33;;;;;;;98.50;48.35;;;;;;;0.05;74.06;101231.39;2048471;84;32999;-74
2021/12/12 11:00:40;;;;;;;98.47;51.77;;;;;;;0.17;74.22;101234.13;2100236;84;29331;-73
2021/12/12 11:03:50;;;;;;;119.17;58.38;;;;;;;0.27;74.03;101239.91;2100010;84;27711;-68
2021/12/12 11:07:00;;;;;;;107.20;54.13;;;;;;;0.34;73.63;101226.78;2102507;83;29892;-71
2021/12/12 11:10:21;;;;;;;117.08;59.58;;;;;;;0.37;73.68;101229.00;2135392;83;31102;-67
2021/12/12 11:13:34;;;;;;;122.50;63.95;;;;;;;0.40;73.42;101226.39;2108491;83;32971;-67
2021/12/12 11:16:56;;;;;;;127.67;65.35;;;;;;;0.44;73.67;101221.59;2065345;86;29340;-67
2021/12/12 11:20:09;;;;;;;124.53;64.37;;;;;;;0.53;73.75;101231.74;2055891;84;27814;-67
2021/12/12 11:23:31;;;;;;;127.25;63.98;;;;;;;0.62;73.69;101227.87;2056672;84;28673;-67
2021/12/12 11:26:50;;;;;;;133.63;66.87;;;;;;;0.72;73.67;101224.41;2084459;84;31453;-66
2021/12/12 11:30:00;;;;;;;141.12;72.03;;;;;;;0.81;73.68;101232.80;1956374;90;34110;-66
2021/12/12 11:33:06;;;;;;;145.30;76.82;;;;;;;0.94;73.65;101230.23;1924592;92;30803;-69
2021/12/12 11:36:13;;;;;;;139.97;72.03;;;;;;;1.05;73.62;101228.09;1924998;92;27707;-68
2021/12/12 11:39:25;;;;;;;166.07;86.00;;;;;;;1.17;73.59;101226.37;1936838;90;29539;-64
2021/12/12 11:42:35;;;;;;;268.57;117.10;;;;;;;1.29;73.57;101227.77;1961179;90;31586;-66
2021/12/12 11:45:46;;;;;;;216.78;100.85;;;;;;;1.31;73.17;101220.73;1961169;90;32808;-65
2021/12/12 11:49:14;;;;;;;174.07;89.35;;;;;;;1.33;73.19;101221.59;1961281;90;29372;-63
2021/12/12 11:52:21;;;;;;;166.62;86.57;;;;;;;1.37;73.03;101226.47;1940731;90;27894;-64
2021/12/12 11:55:40;;;;;;;278.30;126.27;;;;;;;1.34;72.76;101219.86;1972905;89;30101;-69
2021/12/12 11:59:14;;;;;;;288.40;132.50;;;;;;;1.24;72.43;101218.94;1959083;90;31325;-69
2021/12/12 12:02:46;;;;;;;167.77;82.30;;;;;;;1.20;72.64;101218.05;1959209;90;34193;-73
2021/12/12 12:06:14;;;;;;;176.07;89.80;;;;;;;1.16;72.41;101219.36;1990525;83;30221;-70
2021/12/12 12:09:47;;;;;;;144.75;70.30;;;;;;;1.18;72.81;101212.30;2121278;83;27661;-72
2021/12/12 12:13:11;;;;;;;131.35;70.00;;;;;;;1.18;72.71;101212.30;2139766;83;29574;-71
2021/12/12 12:16:48;;;;;;;138.80;69.25;;;;;;;1.28;72.92;101218.08;2101783;84;31909;-71
2021/12/12 12:20:32;;;;;;;128.75;66.92;;;;;;;1.37;72.69;101207.99;2102548;84;32998;-71
2021/12/12 12:27:11;;;;;;;143.02;75.10;;;;;;;1.35;72.12;101209.74;2133239;83;27709;-68
2021/12/12 12:31:09;;;;;;;144.50;74.40;;;;;;;1.32;72.29;101209.73;2137191;83;29568;-67
2021/12/12 12:35:02;;;;;;;156.50;79.22;;;;;;;1.28;72.24;101205.30;2138653;83;31721;-66
2021/12/12 12:38:50;;;;;;;152.47;76.17;;;;;;;1.27;72.21;101208.81;2137930;83;34385;-71
2021/12/12 12:42:49;;;;;;;142.05;70.97;;;;;;;1.12;71.96;101206.57;2138624;83;30252;-72
2021/12/12 12:46:48;;;;;;;151.90;76.72;;;;;;;1.08;71.82;101203.47;2139429;83;27637;-73
2021/12/12 12:50:40;;;;;;;135.90;69.58;;;;;;;0.94;71.92;101207.38;2140412;83;28742;-70
2021/12/12 12:54:03;;;;;;;149.25;73.30;;;;;;;0.85;72.12;101205.58;2139933;83;46603;-69
2021/12/12 12:57:37;;;;;;;152.15;73.35;;;;;;;0.84;72.44;101202.92;2145728;82;33351;-66
2021/12/12 13:00:42;;;;;;;135.10;67.08;;;;;;;0.85;72.42;101204.27;2145942;83;29368;-68
2021/12/12 13:03:51;;;;;;;129.25;66.07;;;;;;;0.85;72.62;101202.95;2146506;82;33015;-70
2021/12/12 13:07:27;;;;;;;144.77;69.30;;;;;;;0.85;72.62;101201.62;2145302;82;29932;-71
2021/12/12 13:10:31;;;;;;;127.70;65.65;;;;;;;0.83;72.64;101205.14;2123252;82;32461;-70
2021/12/12 13:14:04;;;;;;;133.05;69.05;;;;;;;0.78;72.51;101205.09;2145301;82;33308;-68
2021/12/12 13:17:33;;;;;;;143.55;71.77;;;;;;;0.71;72.46;101204.62;2111662;84;30490;-71
2021/12/12 13:21:13;;;;;;;143.28;72.78;;;;;;;0.63;72.74;101197.99;2072055;85;27644;-71
2021/12/12 13:24:23;;;;;;;149.32;71.72;;;;;;;0.63;72.78;101200.63;2072473;85;29134;-69
2021/12/12 13:28:08;;;;;;;140.25;72.03;;;;;;;0.61;72.78;101203.69;2087416;84;31474;-70
2021/12/12 13:31:16;;;;;;;145.00;71.77;;;;;;;0.56;72.72;101202.77;2077129;85;33763;-76
2021/12/12 13:34:32;;;;;;;142.60;71.05;;;;;;;0.54;72.96;101204.51;2088091;83;28776;-71
2021/12/12 13:38:05;;;;;;;137.20;71.80;;;;;;;0.59;73.17;101213.34;2088403;83;27592;-72
2021/12/12 13:41:21;;;;;;;143.68;75.87;;;;;;;0.62;73.08;101209.41;2084510;84;28808;-69
2021/12/12 13:44:43;;;;;;;141.62;70.42;;;;;;;0.62;73.12;101208.52;2054930;86;31165;-70
2021/12/12 13:48:11;;;;;;;140.62;69.95;;;;;;;0.62;73.03;101205.88;2066643;86;33773;-76
2021/12/12 13:51:24;;;;;;;179.10;93.90;;;;;;;0.54;72.96;101210.68;2095241;84;30166;-68
2021/12/12 13:54:49;;;;;;;132.05;68.15;;;;;;;0.54;73.18;101209.36;2076736;84;27674;-71
2021/12/12 13:58:23;;;;;;;156.43;75.65;;;;;;;0.56;73.26;101208.94;2053071;86;28707;-70
2021/12/12 14:01:36;;;;;;;157.57;81.17;;;;;;;0.61;73.36;101216.87;2009688;88;32141;-73
2021/12/12 14:05:03;;;;;;;149.35;77.37;;;;;;;0.66;73.47;101215.16;2046340;85;33770;-67
2021/12/12 14:08:12;;;;;;;144.60;73.15;;;;;;;0.66;73.31;101219.53;1948531;90;30630;-63
2021/12/12 14:11:29;;;;;;;153.05;79.55;;;;;;;0.64;73.33;101219.53;1979360;89;28385;-68
2021/12/12 14:14:36;;;;;;;142.28;72.58;;;;;;;0.65;73.33;101223.04;2018514;86;28725;-66
2021/12/12 14:17:52;;;;;;;151.93;73.45;;;;;;;0.60;73.24;101228.29;2053021;85;31036;-71
2021/12/12 14:20:55;;;;;;;152.35;76.15;;;;;;;0.57;73.27;101229.58;2085112;85;32774;-64
2021/12/12 14:23:58;;;;;;;145.97;76.15;;;;;;;0.51;73.29;101222.94;2083886;85;30541;-64
2021/12/12 14:27:05;;;;;;;145.77;74.07;;;;;;;0.46;73.24;101224.23;2079421;85;27688;-66
2021/12/12 14:30:10;;;;;;;154.65;76.60;;;;;;;0.40;73.25;101220.25;2087030;84;28813;-65
2021/12/12 14:33:18;;;;;;;144.77;75.28;;;;;;;0.32;73.14;101220.62;2087147;85;31036;-68
2021/12/12 14:36:25;;;;;;;153.85;76.42;;;;;;;0.22;73.10;101219.66;2051688;85;32976;-68
2021/12/12 14:39:31;;;;;;;141.85;74.20;;;;;;;0.15;73.12;101217.41;2050993;86;29375;-72
2021/12/12 14:42:32;;;;;;;158.30;78.10;;;;;;;0.05;73.09;101214.27;2062376;85;27618;-64
2021/12/12 14:45:42;;;;;;;160.03;76.25;;;;;;;-0.04;73.20;101220.34;2079486;85;28660;-64
2021/12/12 14:48:55;;;;;;;152.72;76.00;;;;;;;-0.15;73.24;101212.33;1979554;89;31099;-64